Sloflite Two — WDD5763 — position and weather

sailwx.info

Track history (hours):
 
Tides and Currents Weather Stations Pressure Air Temp Water Temp Dewpoint Dewpoint Depression Visibility Wind Speed Wind Dir Waves Ship Positions

Sloflite Two

Owner: Spencer, Norman S, Chester, CA. More information available from US FCC via Universal Licensing System and Coast Guard Vessel Documentation Center.

Last reported at 2017-Sep-29 00:33 UTC. Time now 2017-Oct-16 22:48 UTC.
Position N 48°31' W 122°41'.
Warning: this ship's position is 17 days out of date.

Length 21 m; draft 1.6 m.

Type: Pleasure craft. MMSI: 367163260.

Date/timePositionNaut miles runAvg speedWind from/ knotsBaromVisibWave heightAir tempDewpointWater temp
2017-Sep-29 00:33N 48°31' W 122°41'0 7.7
2017-Sep-29 00:30N 48°31' W 122°42'4 8.4
2017-Sep-29 00:00N 48°32' W 122°48'4 8.2
2017-Sep-28 23:30N 48°35' W 122°51'4 8.9
2017-Sep-28 23:00N 48°40' W 122°53'2 0.1
2017-Sep-27 23:37N 48°41' W 122°54'0 0.6
2017-Sep-27 23:30N 48°41' W 122°54'3 6.4
2017-Sep-27 23:00N 48°38' W 122°53'3 6.4
2017-Sep-27 22:30N 48°35' W 122°53'4 8.8
2017-Sep-27 22:00N 48°35' W 123°00'4 8.4
2017-Sep-27 21:30N 48°37' W 123°06'3 6.2
2017-Sep-27 21:00N 48°37' W 123°10'1 0.0
2017-Sep-26 20:16N 48°37' W 123°10'1 3.1
2017-Sep-26 20:00N 48°37' W 123°10'3 0.1
2017-Sep-25 01:00N 48°40' W 123°12'3 5.8
2017-Sep-25 00:30N 48°39' W 123°08'5 8.8
2017-Sep-24 23:59N 48°35' W 123°03'3 6.6
2017-Sep-24 23:30N 48°33' W 123°01'0 0.0
2017-Sep-24 01:32N 48°33' W 123°01'0 0.0
2017-Sep-24 01:30N 48°33' W 123°01'3 6.1
2017-Sep-24 01:00N 48°33' W 122°56'3 6.9
2017-Sep-24 00:30N 48°34' W 122°51'4 8.5
2017-Sep-24 00:00N 48°32' W 122°45'4 8.3
2017-Sep-23 23:30N 48°31' W 122°39'6 6.8
2017-Sep-23 22:37N 48°28' W 122°31'  
Track history (hours):
 
Tides and Currents Weather Stations Pressure Air Temp Water Temp Dewpoint Dewpoint Depression Visibility Wind Speed Wind Dir Waves Ship Positions

Sloflite Two

Owner: Spencer, Norman S, Chester, CA. More information available from US FCC via Universal Licensing System and Coast Guard Vessel Documentation Center.

Last reported at 2017-Sep-29 00:33 UTC. Time now 2017-Oct-16 22:48 UTC.
Position N 48°31' W 122°41'.
Warning: this ship's position is 17 days out of date.

Length 21 m; draft 1.6 m.

Type: Pleasure craft. MMSI: 367163260.

Date/timePositionNaut miles runAvg speedWind from/ knotsBaromVisibWave heightAir tempDewpointWater temp
2017-Sep-29 00:33N 48°31' W 122°41'0 7.7
2017-Sep-29 00:30N 48°31' W 122°42'4 8.4
2017-Sep-29 00:00N 48°32' W 122°48'4 8.2
2017-Sep-28 23:30N 48°35' W 122°51'4 8.9
2017-Sep-28 23:00N 48°40' W 122°53'2 0.1
2017-Sep-27 23:37N 48°41' W 122°54'0 0.6
2017-Sep-27 23:30N 48°41' W 122°54'3 6.4
2017-Sep-27 23:00N 48°38' W 122°53'3 6.4
2017-Sep-27 22:30N 48°35' W 122°53'4 8.8
2017-Sep-27 22:00N 48°35' W 123°00'4 8.4
2017-Sep-27 21:30N 48°37' W 123°06'3 6.2
2017-Sep-27 21:00N 48°37' W 123°10'1 0.0
2017-Sep-26 20:16N 48°37' W 123°10'1 3.1
2017-Sep-26 20:00N 48°37' W 123°10'3 0.1
2017-Sep-25 01:00N 48°40' W 123°12'3 5.8
2017-Sep-25 00:30N 48°39' W 123°08'5 8.8
2017-Sep-24 23:59N 48°35' W 123°03'3 6.6
2017-Sep-24 23:30N 48°33' W 123°01'0 0.0
2017-Sep-24 01:32N 48°33' W 123°01'0 0.0
2017-Sep-24 01:30N 48°33' W 123°01'3 6.1
2017-Sep-24 01:00N 48°33' W 122°56'3 6.9
2017-Sep-24 00:30N 48°34' W 122°51'4 8.5
2017-Sep-24 00:00N 48°32' W 122°45'4 8.3
2017-Sep-23 23:30N 48°31' W 122°39'6 6.8
2017-Sep-23 22:37N 48°28' W 122°31'  

Dump ship's entire track history